createdAt,value
2023-03-22T00:00:17.214Z,95430
2023-03-22T00:01:25.903Z,95427
2023-03-22T00:02:34.685Z,95424
2023-03-22T00:03:44.307Z,95427
2023-03-22T00:04:51.884Z,95424
2023-03-22T00:06:00.567Z,95427
2023-03-22T00:07:09.235Z,95425
2023-03-22T00:08:18.898Z,95424
2023-03-22T00:09:28.564Z,95427
2023-03-22T00:10:36.357Z,95423
2023-03-22T00:11:44.880Z,95418
2023-03-22T00:12:54.560Z,95416
2023-03-22T00:14:02.227Z,95415
2023-03-22T00:15:10.908Z,95414
2023-03-22T00:16:20.584Z,95415
2023-03-22T00:17:30.254Z,95410
2023-03-22T00:18:38.924Z,95409
2023-03-22T00:19:48.587Z,95410
2023-03-22T00:20:57.243Z,95410
2023-03-22T00:22:06.895Z,95407
2023-03-22T00:23:14.603Z,95406
2023-03-22T00:24:23.278Z,95401
2023-03-22T00:25:32.936Z,95405
2023-03-22T00:26:42.628Z,95401
2023-03-22T00:27:52.292Z,95404
2023-03-22T00:29:00.976Z,95403
2023-03-22T00:30:10.655Z,95398
2023-03-22T00:31:20.366Z,95398
2023-03-22T00:32:28.981Z,95397
2023-03-22T00:33:37.739Z,95397
2023-03-22T00:34:47.485Z,95395
2023-03-22T00:35:57.191Z,95395
2023-03-22T00:37:06.797Z,95395
2023-03-22T00:38:16.474Z,95395
2023-03-22T00:39:26.120Z,95391
2023-03-22T00:40:35.803Z,95389
2023-03-22T00:41:44.458Z,95388
2023-03-22T00:42:53.150Z,95389
2023-03-22T00:44:02.797Z,95387
2023-03-22T00:45:12.459Z,95374
2023-03-22T08:44:12.746Z,95361
2023-03-22T08:45:22.396Z,95361
2023-03-22T08:46:32.098Z,95360
2023-03-22T08:47:40.778Z,95357
2023-03-22T08:48:50.448Z,95356
2023-03-22T08:50:00.100Z,95355
2023-03-22T08:51:08.741Z,95357
2023-03-22T08:52:18.398Z,95349
2023-03-22T08:53:27.072Z,95350
2023-03-22T08:54:36.754Z,95348
2023-03-22T08:55:46.402Z,95349
2023-03-22T08:56:55.057Z,95341
2023-03-22T08:58:04.706Z,95337
2023-03-22T08:59:12.384Z,95340
2023-03-22T09:00:22.057Z,95342
2023-03-22T09:01:32.776Z,95336
2023-03-22T09:02:42.353Z,95337
2023-03-22T09:03:52.050Z,95338
2023-03-22T09:05:01.694Z,95333
2023-03-22T09:06:10.343Z,95336
2023-03-22T09:07:20.008Z,95337
2023-03-22T09:08:29.705Z,95341
2023-03-22T09:09:39.351Z,95346
2023-03-22T09:10:49.009Z,95340
2023-03-22T09:11:57.717Z,95338
2023-03-22T09:13:07.352Z,95343
2023-03-22T09:14:16.083Z,95342
2023-03-22T09:15:24.807Z,95343
2023-03-22T09:16:34.922Z,95339
2023-03-22T09:17:44.123Z,95337
2023-03-22T09:18:53.788Z,95342
2023-03-22T09:20:11.840Z,95333
2023-03-22T09:21:10.048Z,95341
2023-03-22T09:22:19.731Z,95337
2023-03-22T09:23:28.402Z,95337
2023-03-22T09:24:38.049Z,95340
2023-03-22T09:25:47.717Z,95333
2023-03-22T09:26:57.379Z,95334
2023-03-22T09:28:07.094Z,95330
2023-03-22T09:29:15.752Z,95335
2023-03-22T09:30:25.393Z,95334
2023-03-22T09:31:35.115Z,95337
2023-03-22T09:32:44.742Z,95333
2023-03-22T09:33:54.397Z,95324
2023-03-22T09:35:04.078Z,95327
2023-03-22T09:36:13.754Z,95319
2023-03-22T09:37:23.364Z,95326
2023-03-22T09:38:33.033Z,95324
2023-03-22T09:39:42.743Z,95326
2023-03-22T09:40:52.361Z,95316
2023-03-22T09:42:02.035Z,95319
2023-03-22T09:43:11.678Z,95324
2023-03-22T09:44:20.438Z,95322
2023-03-22T09:45:30.096Z,95318
2023-03-22T09:46:39.792Z,95322
2023-03-22T09:47:49.551Z,95310
2023-03-22T09:48:59.114Z,95309
2023-03-22T09:50:08.793Z,95311
2023-03-22T09:51:17.443Z,95311
2023-03-22T09:52:27.121Z,95311
2023-03-22T09:53:36.786Z,95309
2023-03-22T09:54:45.454Z,95307
2023-03-22T09:55:56.103Z,95305
2023-03-22T09:57:03.759Z,95303
2023-03-22T09:58:13.447Z,95309
2023-03-22T09:59:23.112Z,95302
2023-03-22T10:00:30.937Z,95302
2023-03-22T10:01:38.788Z,95299
2023-03-22T10:02:46.198Z,95297
2023-03-22T10:03:55.793Z,95297
2023-03-22T10:05:05.439Z,95295
2023-03-22T10:06:13.121Z,95299
2023-03-22T10:07:22.780Z,95298
2023-03-22T10:08:32.470Z,95296
2023-03-22T10:09:40.175Z,95295
2023-03-22T10:10:48.850Z,95292
2023-03-22T10:11:57.533Z,95297
2023-03-22T10:13:07.204Z,95287
2023-03-22T10:14:16.915Z,95287
2023-03-22T10:15:25.576Z,95285
2023-03-22T10:16:35.303Z,95288
2023-03-22T10:17:44.932Z,95288
2023-03-22T10:18:54.624Z,95286
2023-03-22T10:20:04.459Z,95285
2023-03-22T10:21:14.120Z,95287
2023-03-22T10:22:23.779Z,95289
2023-03-22T10:23:33.511Z,95289
2023-03-22T10:24:42.157Z,95282
2023-03-22T10:25:50.882Z,95290
2023-03-22T10:27:00.562Z,95282
2023-03-22T10:28:09.214Z,95276
2023-03-22T10:29:18.919Z,95279
2023-03-22T10:30:28.614Z,95273
2023-03-22T10:31:37.332Z,95273
2023-03-22T10:32:56.947Z,95272
2023-03-22T10:33:57.596Z,95275
2023-03-22T10:35:07.260Z,95273
2023-03-22T10:36:16.937Z,95271
2023-03-22T10:37:26.600Z,95268
2023-03-22T10:38:35.258Z,95273
2023-03-22T10:39:43.925Z,95262
2023-03-22T10:40:53.598Z,95270
2023-03-22T10:42:03.275Z,95265
2023-03-22T10:43:11.920Z,95264
2023-03-22T10:44:20.592Z,95262
2023-03-22T10:45:30.299Z,95265
2023-03-22T10:46:38.029Z,95261
2023-03-22T10:47:46.663Z,95265
2023-03-22T10:48:55.302Z,95255
2023-03-22T10:50:04.995Z,95269
2023-03-22T10:51:14.663Z,95262
2023-03-22T10:52:22.330Z,95259
2023-03-22T10:53:32.063Z,95263
2023-03-22T10:54:41.671Z,95262
2023-03-22T10:55:50.348Z,95260
2023-03-22T10:56:59.020Z,95265
2023-03-22T10:58:07.696Z,95262
2023-03-22T10:59:17.366Z,95259
2023-03-22T11:00:27.100Z,95253
2023-03-22T11:01:35.844Z,95254
2023-03-22T11:02:44.485Z,95249
2023-03-22T11:03:54.037Z,95250
2023-03-22T11:05:02.698Z,95249
2023-03-22T11:06:11.409Z,95257
2023-03-22T11:07:21.050Z,95252
2023-03-22T11:08:30.708Z,95251
2023-03-22T11:09:40.408Z,95258
2023-03-22T11:10:49.132Z,95259
2023-03-22T11:11:57.767Z,95253
2023-03-22T11:13:07.448Z,95259
2023-03-22T11:14:16.088Z,95258
2023-03-22T11:15:25.751Z,95252
2023-03-22T11:16:35.489Z,95256
2023-03-22T11:17:45.153Z,95251
2023-03-22T11:18:53.802Z,95252
2023-03-22T11:20:03.484Z,95255
2023-03-22T11:21:13.198Z,95254
2023-03-22T11:22:22.871Z,95245
2023-03-22T11:23:32.513Z,95246
2023-03-22T11:24:42.174Z,95236
2023-03-22T11:25:51.860Z,95240
2023-03-22T11:27:00.524Z,95242
2023-03-22T11:28:10.197Z,95236
2023-03-22T11:29:18.845Z,95243
2023-03-22T11:30:28.515Z,95240
2023-03-22T11:31:36.223Z,95239
2023-03-22T11:32:45.915Z,95235
2023-03-22T11:33:55.525Z,95232
2023-03-22T11:35:05.195Z,95237
2023-03-22T11:36:13.880Z,95238
2023-03-22T11:37:22.584Z,95236
2023-03-22T11:38:32.265Z,95234
2023-03-22T11:39:41.885Z,95234
2023-03-22T11:40:50.550Z,95234
2023-03-22T11:42:00.262Z,95232
2023-03-22T11:43:09.897Z,95228
2023-03-22T11:44:18.560Z,95227
2023-03-22T11:45:27.219Z,95224
2023-03-22T11:46:35.973Z,95222
2023-03-22T11:47:44.632Z,95223
2023-03-22T11:48:54.258Z,95225
2023-03-22T11:50:03.887Z,95217
2023-03-22T11:51:13.559Z,95229
2023-03-22T11:52:23.236Z,95216
2023-03-22T11:53:30.893Z,95220
2023-03-22T11:54:40.569Z,95219
2023-03-22T11:55:50.214Z,95218
2023-03-22T11:56:58.912Z,95224
2023-03-22T11:58:08.590Z,95215
2023-03-22T11:59:18.266Z,95216
2023-03-22T12:00:26.909Z,95219
2023-03-22T12:01:36.593Z,95209
2023-03-22T12:02:44.356Z,95215
2023-03-22T12:03:53.106Z,95214
2023-03-22T12:05:01.658Z,95208
2023-03-22T12:06:11.313Z,95210
2023-03-22T12:07:21.003Z,95206
2023-03-22T12:08:28.663Z,95208
2023-03-22T12:09:38.333Z,95206
2023-03-22T12:10:48.049Z,95195
2023-03-22T12:11:57.743Z,95194
2023-03-22T12:13:06.403Z,95196
2023-03-22T12:14:15.073Z,95201
2023-03-22T12:15:24.747Z,95196
2023-03-22T12:16:34.697Z,95191
2023-03-22T12:17:42.242Z,95189
2023-03-22T12:18:50.944Z,95183
2023-03-22T12:20:00.603Z,95186
2023-03-22T12:21:09.250Z,95190
2023-03-22T12:22:17.972Z,95194
2023-03-22T12:23:27.658Z,95195
2023-03-22T12:24:36.273Z,95191
2023-03-22T12:25:45.941Z,95191
2023-03-22T12:26:54.658Z,95191
2023-03-22T12:28:04.296Z,95186
2023-03-22T12:29:13.969Z,95185
2023-03-22T12:30:21.623Z,95183
2023-03-22T12:31:31.306Z,95181
2023-03-22T12:32:41.028Z,95182
2023-03-22T12:33:50.741Z,95183
2023-03-22T12:35:17.474Z,95173
2023-03-22T12:36:11.244Z,95182
2023-03-22T12:37:20.871Z,95176
2023-03-22T12:38:30.545Z,95178
2023-03-22T12:39:39.213Z,95176
2023-03-22T12:40:47.894Z,95171
2023-03-22T12:41:58.629Z,95168
2023-03-22T12:43:08.271Z,95169
2023-03-22T12:44:17.979Z,95165
2023-03-22T12:45:27.631Z,95169
2023-03-22T12:46:36.338Z,95161
2023-03-22T12:47:47.091Z,95163
2023-03-22T12:48:54.775Z,95156
2023-03-22T12:50:04.353Z,95149
2023-03-22T12:51:20.047Z,95152
2023-03-22T12:52:32.204Z,95145
2023-03-22T12:53:38.360Z,95149
2023-03-22T12:54:48.022Z,95143
2023-03-22T12:55:56.711Z,95140
2023-03-22T12:57:06.438Z,95135
2023-03-22T12:58:16.074Z,95140
2023-03-22T12:59:24.719Z,95142
2023-03-22T13:00:34.518Z,95138
2023-03-22T13:01:43.082Z,95151
2023-03-22T13:02:51.872Z,95130
2023-03-22T13:04:01.475Z,95126
2023-03-22T13:05:10.210Z,95119
2023-03-22T13:06:18.871Z,95125
2023-03-22T13:07:28.556Z,95131
2023-03-22T13:08:37.220Z,95131
2023-03-22T13:09:46.898Z,95126
2023-03-22T13:10:54.536Z,95129
2023-03-22T13:12:04.204Z,95117
2023-03-22T13:13:12.993Z,95116
2023-03-22T13:14:22.619Z,95115
2023-03-22T13:15:41.145Z,95123
2023-03-22T13:16:42.938Z,95121
2023-03-22T13:17:51.634Z,95123
2023-03-22T13:19:01.252Z,95112
2023-03-22T13:20:10.913Z,95112
2023-03-22T13:21:20.567Z,95109
2023-03-22T13:22:28.240Z,95111
2023-03-22T13:23:36.896Z,95104
2023-03-22T13:24:46.555Z,95110
2023-03-22T13:25:54.205Z,95109
2023-03-22T13:27:03.864Z,95104
2023-03-22T13:28:13.546Z,95103
2023-03-22T13:29:22.283Z,95104
2023-03-22T13:30:33.094Z,95113
2023-03-22T13:31:41.582Z,95107
2023-03-22T13:32:52.621Z,95102
2023-03-22T13:34:00.853Z,95109
2023-03-22T13:35:09.510Z,95103
2023-03-22T13:36:19.174Z,95106
2023-03-22T13:37:27.836Z,95109
2023-03-22T13:38:37.503Z,95110
2023-03-22T13:39:47.145Z,95107
2023-03-22T13:40:54.804Z,95107
2023-03-22T13:42:03.484Z,95100
2023-03-22T13:43:13.167Z,95099
2023-03-22T13:44:21.830Z,95103
2023-03-22T13:45:30.502Z,95100
2023-03-22T13:46:40.213Z,95106
2023-03-22T13:47:48.908Z,95108
2023-03-22T13:49:00.811Z,95110
2023-03-22T13:50:07.470Z,95102
2023-03-22T13:51:16.818Z,95103
2023-03-22T13:52:26.494Z,95114
2023-03-22T13:53:34.193Z,95105
2023-03-22T13:54:43.837Z,95107
2023-03-22T13:55:53.520Z,95098
2023-03-22T13:57:02.184Z,95102
2023-03-22T13:58:11.856Z,95101
2023-03-22T13:59:21.524Z,95100
2023-03-22T14:00:30.176Z,95094
2023-03-22T14:01:39.899Z,95097
2023-03-22T14:02:49.704Z,95097
2023-03-22T14:03:59.224Z,95096
2023-03-22T14:05:07.841Z,95095
2023-03-22T14:06:17.551Z,95091
2023-03-22T14:07:27.224Z,95086
2023-03-22T14:08:36.906Z,95087
2023-03-22T14:09:45.577Z,95088
2023-03-22T14:10:56.233Z,95094
2023-03-22T14:12:05.897Z,95090
2023-03-22T14:13:15.609Z,95092
2023-03-22T14:14:25.296Z,95091
2023-03-22T14:15:33.976Z,95090
2023-03-22T14:16:43.650Z,95096
2023-03-22T14:17:53.304Z,95096
2023-03-22T14:19:01.960Z,95097
2023-03-22T14:20:11.626Z,95089
2023-03-22T14:21:20.309Z,95086
2023-03-22T14:46:39.544Z,95061
2023-03-22T14:47:50.164Z,95066
2023-03-22T14:48:58.841Z,95060
2023-03-22T14:50:08.521Z,95062
2023-03-22T14:51:18.326Z,95062
2023-03-22T14:52:26.857Z,95055
2023-03-22T14:53:36.562Z,95054
2023-03-22T14:54:44.207Z,95053
2023-03-22T14:55:53.863Z,95053
2023-03-22T14:57:03.515Z,95054
2023-03-22T14:58:13.175Z,95057
2023-03-22T14:59:22.862Z,95055
2023-03-22T15:00:32.533Z,95055
2023-03-22T15:01:42.217Z,95060
2023-03-22T15:02:51.864Z,95051
2023-03-22T15:04:01.529Z,95049
2023-03-22T15:05:11.999Z,95051
2023-03-22T15:06:20.651Z,95050
2023-03-22T15:07:29.325Z,95051
2023-03-22T15:08:39.042Z,95046
2023-03-22T15:09:47.671Z,95049
2023-03-22T15:10:57.320Z,95047
2023-03-22T15:12:04.982Z,95049
2023-03-22T15:13:13.636Z,95045
2023-03-22T15:14:23.318Z,95046
2023-03-22T15:15:31.952Z,95044
2023-03-22T15:16:40.640Z,95043
2023-03-22T15:17:49.313Z,95038
2023-03-22T15:18:57.960Z,95041
2023-03-22T15:20:07.619Z,95036
2023-03-22T15:21:15.313Z,95034
2023-03-22T15:22:23.967Z,95033
2023-03-22T15:23:33.620Z,95032
2023-03-22T15:24:43.296Z,95033
2023-03-22T15:25:51.957Z,95031
2023-03-22T15:27:01.602Z,95034
2023-03-22T15:28:11.253Z,95035
2023-03-22T15:29:20.928Z,95037
2023-03-22T15:30:30.604Z,95034
2023-03-22T15:31:39.270Z,95036
2023-03-22T15:32:48.899Z,95036
2023-03-22T15:33:58.594Z,95039
2023-03-22T15:35:08.221Z,95036
2023-03-22T15:36:17.897Z,95031
2023-03-22T15:37:26.512Z,95040
2023-03-22T15:38:37.580Z,95041
2023-03-22T15:39:46.820Z,95040
2023-03-22T15:40:56.467Z,95037
2023-03-22T15:42:06.192Z,95038
2023-03-22T15:43:14.829Z,95035
2023-03-22T15:44:23.497Z,95038
2023-03-22T15:45:32.180Z,95036
2023-03-22T15:46:40.813Z,95039
2023-03-22T15:47:50.479Z,95035
2023-03-22T15:48:58.123Z,95037
2023-03-22T15:50:06.832Z,95037
2023-03-22T15:51:16.458Z,95041
2023-03-22T15:52:26.114Z,95042
2023-03-22T15:53:34.779Z,95039
2023-03-22T15:54:44.456Z,95045
2023-03-22T15:55:54.116Z,95041
2023-03-22T15:57:03.784Z,95044
2023-03-22T15:58:13.437Z,95048
2023-03-22T15:59:23.109Z,95052
2023-03-22T16:00:32.770Z,95047
2023-03-22T16:01:40.409Z,95047
2023-03-22T16:02:50.063Z,95047
2023-03-22T16:03:58.770Z,95050
2023-03-22T16:05:07.371Z,95046
2023-03-22T16:06:17.049Z,95051
2023-03-22T16:07:25.676Z,95049
2023-03-22T16:08:35.326Z,95051
2023-03-22T16:09:45.012Z,95055
2023-03-22T16:10:52.665Z,95051
2023-03-22T16:12:01.311Z,95051
2023-03-22T16:13:10.972Z,95056
2023-03-22T16:14:20.653Z,95055
2023-03-22T16:15:30.387Z,95059
2023-03-22T16:16:38.130Z,95058
2023-03-22T16:17:47.677Z,95063
2023-03-22T16:18:57.385Z,95061
2023-03-22T16:20:06.093Z,95062
2023-03-22T16:21:14.712Z,95064
2023-03-22T16:22:23.384Z,95070
2023-03-22T16:23:32.038Z,95061
2023-03-22T16:24:41.727Z,95065
2023-03-22T16:25:51.422Z,95065
2023-03-22T16:27:01.066Z,95066
2023-03-22T16:28:10.722Z,95068
2023-03-22T16:29:19.400Z,95063
2023-03-22T16:30:28.073Z,95061
2023-03-22T16:31:38.953Z,95071
2023-03-22T16:32:46.360Z,95070
2023-03-22T16:33:56.145Z,95072
2023-03-22T16:35:04.817Z,95075
2023-03-22T16:36:14.993Z,95077
2023-03-22T16:37:24.097Z,95084
2023-03-22T16:38:31.769Z,95078
2023-03-22T16:39:40.394Z,95080
2023-03-22T16:40:49.092Z,95078
2023-03-22T16:41:57.740Z,95082
2023-03-22T16:43:07.422Z,95078
2023-03-22T16:44:16.072Z,95078
2023-03-22T16:45:24.749Z,95074
2023-03-22T16:46:34.483Z,95068
2023-03-22T16:47:43.101Z,95073
2023-03-22T16:48:52.764Z,95070
2023-03-22T16:50:02.445Z,95075
2023-03-22T16:51:11.097Z,95080
2023-03-22T16:52:21.762Z,95073
2023-03-22T16:53:37.737Z,95078
2023-03-22T16:54:40.744Z,95076
2023-03-22T16:55:49.812Z,95075
2023-03-22T16:56:59.480Z,95077
2023-03-22T16:58:08.128Z,95083
2023-03-22T16:59:16.774Z,95084
2023-03-22T17:00:25.597Z,95087
2023-03-22T17:01:35.362Z,95089
2023-03-22T17:02:44.993Z,95088
2023-03-22T17:03:54.686Z,95089
2023-03-22T17:05:03.499Z,95090
2023-03-22T17:06:13.037Z,95089
2023-03-22T17:07:23.526Z,95087
2023-03-22T17:08:31.330Z,95083
2023-03-22T17:09:39.978Z,95086
2023-03-22T17:10:49.681Z,95091
2023-03-22T17:11:59.304Z,95089
2023-03-22T17:13:08.955Z,95091
2023-03-22T17:14:17.608Z,95093
2023-03-22T17:15:27.346Z,95093
2023-03-22T17:16:36.998Z,95096
2023-03-22T17:17:44.576Z,95095
2023-03-22T17:18:54.238Z,95093
2023-03-22T17:20:03.933Z,95091
2023-03-22T17:21:12.598Z,95088
2023-03-22T17:22:21.253Z,95094
2023-03-22T17:23:30.884Z,95094
2023-03-22T17:24:38.532Z,95099
2023-03-22T17:25:48.221Z,95100
2023-03-22T17:26:56.889Z,95097
2023-03-22T17:28:06.515Z,95097
2023-03-22T17:29:16.168Z,95097
2023-03-22T17:30:25.831Z,95094
2023-03-22T17:31:35.502Z,95094
2023-03-22T17:32:57.792Z,95098
2023-03-22T17:33:53.735Z,95090
2023-03-22T17:35:04.383Z,95095
2023-03-22T17:36:13.067Z,95095
2023-03-22T17:37:21.716Z,95097
2023-03-22T17:38:35.384Z,95098
2023-03-22T17:40:11.804Z,95090
2023-03-22T17:40:56.060Z,95095
2023-03-22T17:42:02.275Z,95097
2023-03-22T17:43:10.895Z,95098
2023-03-22T17:44:20.549Z,95094
2023-03-22T17:45:31.409Z,95104
2023-03-22T17:47:51.478Z,95097
2023-03-22T17:49:01.122Z,95104
2023-03-22T17:50:10.777Z,95104
2023-03-22T17:51:19.504Z,95102
2023-03-22T17:52:29.982Z,95105
2023-03-22T17:56:25.677Z,95108
2023-03-22T17:57:33.182Z,95106
2023-03-22T17:58:34.943Z,95107
2023-03-22T17:59:32.035Z,95109
2023-03-22T18:00:40.788Z,95108
2023-03-22T18:01:50.372Z,95107
2023-03-22T18:03:00.028Z,95108
2023-03-22T18:04:08.669Z,95107
2023-03-22T18:05:24.628Z,95112
2023-03-22T18:06:28.959Z,95113
2023-03-22T18:07:38.613Z,95114
2023-03-22T18:08:49.244Z,95113
2023-03-22T18:09:58.896Z,95112
2023-03-22T18:11:08.580Z,95116
2023-03-22T18:12:18.241Z,95115
2023-03-22T18:13:27.864Z,95122
2023-03-22T18:14:40.968Z,95116
2023-03-22T18:15:47.168Z,95116
2023-03-22T18:16:55.812Z,95115
2023-03-22T18:18:05.480Z,95114
2023-03-22T18:19:14.128Z,95112
2023-03-22T18:21:34.415Z,95114
2023-03-22T18:22:42.059Z,95114
2023-03-22T18:23:50.705Z,95109
2023-03-22T18:25:00.358Z,95109
2023-03-22T18:26:25.607Z,95110
2023-03-22T18:28:32.290Z,95111
2023-03-22T18:29:41.958Z,95116
2023-03-22T18:30:51.667Z,95114
2023-03-22T18:32:08.844Z,95116
2023-03-22T18:33:09.893Z,95117
2023-03-22T18:34:19.548Z,95119
2023-03-22T18:35:28.187Z,95122
2023-03-22T18:36:37.874Z,95122
2023-03-22T18:37:46.528Z,95122
2023-03-22T18:39:17.222Z,95123
2023-03-22T18:41:34.660Z,95133
2023-03-22T18:42:37.195Z,95130
2023-03-22T18:43:38.926Z,95132
2023-03-22T18:44:48.736Z,95135
2023-03-22T18:46:02.925Z,95132
2023-03-22T18:47:09.128Z,95134
2023-03-22T18:48:18.751Z,95140
2023-03-22T18:49:28.403Z,95139
2023-03-22T18:50:38.074Z,95135
2023-03-22T18:52:11.287Z,95135
2023-03-22T18:54:10.027Z,95135
2023-03-22T18:55:25.251Z,95134
2023-03-22T18:56:32.149Z,95136
2023-03-22T18:57:40.082Z,95132
2023-03-22T18:58:49.710Z,95127
2023-03-22T18:59:59.358Z,95130
2023-03-22T19:01:09.015Z,95127
2023-03-22T19:02:25.008Z,95124
2023-03-22T19:03:29.313Z,95121
2023-03-22T19:04:38.955Z,95123
2023-03-22T19:05:47.588Z,95124
2023-03-22T19:06:57.257Z,95123
2023-03-22T19:09:16.527Z,95120
2023-03-22T19:10:26.223Z,95123
2023-03-22T19:11:35.937Z,95122
2023-03-22T19:12:45.613Z,95120
2023-03-22T19:14:25.413Z,95120
2023-03-22T19:16:16.534Z,95121
2023-03-22T19:17:25.267Z,95125
2023-03-22T19:18:34.919Z,95124
2023-03-22T19:19:44.564Z,95132
2023-03-22T19:21:02.658Z,95134
2023-03-22T19:22:04.865Z,95132
2023-03-22T19:23:14.521Z,95132
2023-03-22T19:24:24.199Z,95132
2023-03-22T19:25:33.870Z,95134
2023-03-22T19:26:52.774Z,95131
2023-03-22T19:27:54.294Z,95128
2023-03-22T19:29:02.951Z,95127
2023-03-22T19:30:12.608Z,95132
2023-03-22T19:31:21.281Z,95129
2023-03-22T19:32:29.969Z,95131
2023-03-22T19:33:52.789Z,95135
2023-03-22T19:34:51.773Z,95132
2023-03-22T19:35:59.969Z,95130
2023-03-22T19:37:09.580Z,95127
2023-03-22T19:38:19.229Z,95129
2023-03-22T19:39:26.871Z,95130
2023-03-22T19:41:24.055Z,95130
2023-03-22T19:42:57.829Z,95134
2023-03-22T19:44:07.456Z,95128
2023-03-22T19:45:17.127Z,95126
2023-03-22T19:46:25.921Z,95135
2023-03-22T19:47:35.918Z,95129
2023-03-22T19:48:46.109Z,95127
2023-03-22T19:49:54.768Z,95129
2023-03-22T19:51:03.420Z,95130
2023-03-22T19:52:12.082Z,95132
2023-03-22T19:54:39.645Z,95125
2023-03-22T19:55:41.129Z,95132
2023-03-22T19:56:50.669Z,95133
2023-03-22T19:57:58.354Z,95128
2023-03-22T19:59:11.642Z,95129
2023-03-22T20:00:44.239Z,95131
2023-03-22T20:01:28.284Z,95133
2023-03-22T20:02:38.029Z,95131
2023-03-22T20:03:46.674Z,95128
2023-03-22T20:04:56.596Z,95128
2023-03-22T20:06:10.013Z,95127
2023-03-22T20:07:16.663Z,95132
2023-03-22T20:08:26.331Z,95129
2023-03-22T20:09:36.017Z,95134
2023-03-22T20:10:45.674Z,95134
2023-03-22T20:11:55.338Z,95129
2023-03-22T20:13:04.020Z,95128
2023-03-22T20:14:13.713Z,95135
2023-03-22T20:15:23.353Z,95134
2023-03-22T20:16:33.019Z,95133
2023-03-22T20:17:42.709Z,95140
2023-03-22T20:18:50.380Z,95130
2023-03-22T20:20:00.034Z,95135
2023-03-22T20:21:09.674Z,95133
2023-03-22T20:22:18.391Z,95132
2023-03-22T20:23:28.045Z,95138
2023-03-22T20:24:37.709Z,95131
2023-03-22T20:25:47.359Z,95134
2023-03-22T20:26:57.052Z,95130
2023-03-22T20:28:06.745Z,95133
2023-03-22T20:29:16.384Z,95132
2023-03-22T20:30:26.067Z,95133
2023-03-22T20:31:35.700Z,95132
2023-03-22T20:32:45.381Z,95134
2023-03-22T20:33:55.043Z,95136
2023-03-22T20:35:04.714Z,95132
2023-03-22T20:36:14.386Z,95129
2023-03-22T20:37:24.125Z,95134
2023-03-22T20:38:33.784Z,95131
2023-03-22T20:39:43.440Z,95130
2023-03-22T20:40:52.088Z,95134
2023-03-22T20:42:00.750Z,95132
2023-03-22T20:43:10.452Z,95131
2023-03-22T20:44:20.115Z,95131
2023-03-22T20:45:28.932Z,95133
2023-03-22T20:46:38.462Z,95131
2023-03-22T20:47:47.183Z,95132
2023-03-22T20:48:56.837Z,95135
2023-03-22T20:50:05.488Z,95134
2023-03-22T20:51:14.144Z,95130
2023-03-22T20:52:23.792Z,95133
2023-03-22T20:53:33.528Z,95134
2023-03-22T20:54:42.192Z,95133
2023-03-22T20:55:51.864Z,95131
2023-03-22T20:57:00.509Z,95133
2023-03-22T20:58:10.205Z,95128
2023-03-22T20:59:18.872Z,95131
2023-03-22T21:00:28.522Z,95130
2023-03-22T21:01:37.214Z,95131
2023-03-22T21:02:45.833Z,95133
2023-03-22T21:03:55.535Z,95126
2023-03-22T21:05:03.177Z,95132
2023-03-22T21:06:11.834Z,95130
2023-03-22T21:07:20.483Z,95131
2023-03-22T21:08:30.169Z,95134
2023-03-22T21:09:39.823Z,95132
2023-03-22T21:10:49.470Z,95134
2023-03-22T21:11:58.159Z,95134
2023-03-22T21:13:07.830Z,95132
2023-03-22T21:14:16.513Z,95132
2023-03-22T21:15:25.195Z,95132
2023-03-22T21:16:34.803Z,95135
2023-03-22T21:17:43.492Z,95130
2023-03-22T21:18:53.145Z,95133
2023-03-22T21:20:01.793Z,95136
2023-03-22T21:21:10.432Z,95138
2023-03-22T21:22:20.090Z,95135
2023-03-22T21:23:27.758Z,95136
2023-03-22T21:24:37.412Z,95133
2023-03-22T21:25:46.065Z,95134
2023-03-22T21:26:55.726Z,95141
2023-03-22T21:28:04.395Z,95138
2023-03-22T21:29:13.063Z,95134
2023-03-22T21:30:21.716Z,95136
2023-03-22T21:31:31.379Z,95137
2023-03-22T21:32:39.013Z,95135
2023-03-22T21:33:48.728Z,95138
2023-03-22T21:34:58.361Z,95135
2023-03-22T21:36:08.046Z,95138
2023-03-22T21:37:17.647Z,95136
2023-03-22T21:38:25.358Z,95138
2023-03-22T21:39:35.020Z,95140
2023-03-22T21:40:44.676Z,95136
2023-03-22T21:41:52.314Z,95134
2023-03-22T21:43:01.966Z,95138
2023-03-22T21:44:10.626Z,95130
2023-03-22T21:45:20.303Z,95130
2023-03-22T21:46:29.944Z,95132
2023-03-22T21:47:37.594Z,95130
2023-03-22T21:48:47.255Z,95134
2023-03-22T21:49:56.935Z,95134
2023-03-22T21:51:06.548Z,95138
2023-03-22T21:52:16.203Z,95135
2023-03-22T21:53:24.872Z,95132
2023-03-22T21:54:33.523Z,95134
2023-03-22T21:55:44.364Z,95129
2023-03-22T21:56:52.812Z,95131
2023-03-22T21:58:02.505Z,95134
2023-03-22T21:59:12.162Z,95134
2023-03-22T22:00:20.805Z,95135
2023-03-22T22:01:29.446Z,95132
2023-03-22T22:02:38.091Z,95134
2023-03-22T22:03:47.753Z,95135
2023-03-22T22:04:57.398Z,95132
2023-03-22T22:06:05.062Z,95131
2023-03-22T22:07:14.732Z,95128
2023-03-22T22:08:24.408Z,95133
2023-03-22T22:09:34.077Z,95128
2023-03-22T22:10:43.717Z,95130
2023-03-22T22:11:52.363Z,95128
2023-03-22T22:13:01.996Z,95129
2023-03-22T22:14:11.662Z,95125
2023-03-22T22:15:19.301Z,95127
2023-03-22T22:16:28.945Z,95124
2023-03-22T22:17:38.588Z,95127
2023-03-22T22:18:47.233Z,95125
2023-03-22T22:19:55.893Z,95127
2023-03-22T22:21:05.538Z,95121
2023-03-22T22:22:15.376Z,95124
2023-03-22T22:23:23.840Z,95117
2023-03-22T22:24:31.512Z,95116
2023-03-22T22:25:41.211Z,95111
2023-03-22T22:26:50.799Z,95113
2023-03-22T22:27:58.431Z,95107
2023-03-22T22:29:06.081Z,95113
2023-03-22T22:30:14.727Z,95110
2023-03-22T22:31:23.365Z,95110
2023-03-22T22:32:33.021Z,95112
2023-03-22T22:33:42.657Z,95113
2023-03-22T22:34:52.330Z,95113
2023-03-22T22:36:02.044Z,95121
2023-03-22T22:37:09.645Z,95119
2023-03-22T22:38:18.311Z,95116
2023-03-22T22:39:27.958Z,95116
2023-03-22T22:40:37.602Z,95109
2023-03-22T22:41:46.273Z,95119
2023-03-22T22:42:54.929Z,95113
2023-03-22T22:44:03.564Z,95116
2023-03-22T22:45:13.230Z,95115
2023-03-22T22:46:20.873Z,95112
2023-03-22T22:47:29.520Z,95114
2023-03-22T22:48:38.169Z,95114
2023-03-22T22:49:46.842Z,95114
2023-03-22T22:50:56.508Z,95114
2023-03-22T22:52:04.146Z,95112
2023-03-22T22:53:13.785Z,95113
2023-03-22T22:54:23.484Z,95111
2023-03-22T22:55:33.160Z,95111
2023-03-22T22:56:42.819Z,95114
2023-03-22T22:57:51.453Z,95113
2023-03-22T22:59:01.107Z,95113
2023-03-22T23:00:09.778Z,95112
2023-03-22T23:01:18.430Z,95114
2023-03-22T23:02:28.087Z,95109
2023-03-22T23:03:37.741Z,95110
2023-03-22T23:04:47.397Z,95111
2023-03-22T23:05:57.040Z,95112
2023-03-22T23:07:05.701Z,95110
2023-03-22T23:08:14.366Z,95107
2023-03-22T23:09:23.009Z,95107
2023-03-22T23:10:32.708Z,95106
2023-03-22T23:11:42.364Z,95107
2023-03-22T23:12:50.009Z,95106
2023-03-22T23:13:59.648Z,95112
2023-03-22T23:15:15.285Z,95110
2023-03-22T23:16:19.933Z,95113
2023-03-22T23:17:28.620Z,95115
2023-03-22T23:18:37.260Z,95113
2023-03-22T23:19:46.932Z,95111
2023-03-22T23:20:56.577Z,95110
2023-03-22T23:22:05.222Z,95109
2023-03-22T23:23:14.912Z,95109
2023-03-22T23:24:24.566Z,95109
2023-03-22T23:25:33.240Z,95107
2023-03-22T23:26:41.913Z,95106